Erdem Tokoz

Recruteur en chef - Basaksehir
3 Déc 2028
Dimanche
Processus

Personnalité

Adaptabilité (12) Ambition (17) Controverse (18) Loyauté (3) Pression (18) Professionnalisme (13) Sportivité (15) Tempérament (16)

Profil

Style d'entraînement Démocratique
Diplôme Continental B
Détermination 9
Gestion des joueurs 12
Motivation 8
Discipline 10
Satisfaction professionnelle
94%
Fatigue
0%
Rôle Recruteur en chef
Salaire 14.6K p/s
Contrat 14.03.2030

Performance

Comportement Bon
Efficacité de l'entraînement
33%
Développement des joueurs
65%
Prévention des blessures
35%
Mise en place tactique
50%

Événements récents

A évalué un joueur maintenant
A participé à une réunion de recrutement maintenant
A recommandé une cible de transfert maintenant
A recommandé une cible de transfert maintenant
A recommandé une cible de transfert maintenant
A recommandé une cible de transfert maintenant
A recommandé une cible de transfert maintenant
A évalué un joueur 7j

Suivi en cours

291
Joueur Club Statut Capacité Confiance Observé Dernière observation Dernier vote
Azizbek To'lqinbekov Bunyodkor Actif 108 / 116 40% 3 01.12.2028 -
Harrison Armstrong Ipswich Town Actif 137 / 141 40% 3 01.12.2028 -
Rafael Mota Sporting CP Actif 120 / 120 40% 1 01.12.2028 -
Riquelme Thompson-Jones Accrington Stanley Actif 114 / 121 40% 6 27.11.2028 -
Honest Ahanor Atalanta Actif 146 / 151 40% 6 27.11.2028 -
Ayyoub Bouaddi Stoke City Actif 160 / 156 40% 2 26.11.2028 -
Olivier Leroux Mouscron Actif 106 / 109 40% 2 26.11.2028 -
Luka Vušković Tottenham Actif 146 / 162 40% 1 21.11.2028 -
Guy Noël Zohouri Le Havre AC Actif 132 / 131 40% 1 20.11.2028 -
Noah Markmann Esbjerg Actif 122 / 122 40% 2 19.11.2028 -
Luis Otávio Orlando City Actif 119 / 115 40% 3 19.11.2028 -
Norman Díaz Ankaragucu Actif 112 / 112 52% 1 / 1m 15.11.2028 -
Andrey Ivlev Nizhniy Novgorod Actif 103 / 117 40% 2 09.11.2028 -
Snyder Brunell Seattle Sounders Actif 96 / 112 40% 1 09.11.2028 -
Davinchi Getafe Actif 135 / 126 40% 1 07.11.2028 -
Marko Zebić Lucko Actif 112 / 135 40% 1 07.11.2028 -
Matias Siltanen Malmo FF Actif 114 / 123 40% 5 06.11.2028 -
Jack Shorrock Port Vale Actif 102 / 105 40% 1 06.11.2028 -
Andrija Bulatović Chamois Niortais Actif 129 / 138 40% 3 05.11.2028 -
Diego León Rotherham United Actif 131 / 133 40% 4 05.11.2028 -
Christos Mouzakitis Hull City Actif 140 / 151 40% 2 03.11.2028 -
Diego Cheuquepal Racing Actif 103 / 96 40% 1 03.11.2028 -
Tobías Ramírez River Plate Actif 117 / 137 40% 3 02.11.2028 -
Ronan Kpakio AC Milan Actif 132 / 134 40% 1 02.11.2028 -
Giovanni Leoni Lincoln City Actif 147 / 146 40% 6 01.11.2028 -
Musa Danjuma Umraniyespor Actif 98 / 110 40% 1 01.11.2028 -
Gideon Manaseh Ikorodu City Actif 105 / 88 40% 4 28.10.2028 -
José Neto Benfica Actif 128 / 127 40% 1 27.10.2028 -
Tyson Pearce St. Louis CITY SC Actif 95 / 99 40% 1 27.10.2028 -
João Simões Sporting CP Actif 143 / 142 40% 2 25.10.2028 -
Thulani Manyama Portland Timbers Actif 126 / 120 40% 3 25.10.2028 -
Trey Nyoni Rotherham United Actif 150 / 156 40% 4 23.10.2028 -
Miguel Figueiredo Benfica Actif 118 / 130 40% 1 22.10.2028 -
Peyton Miller New England Revolution Actif 103 / 117 40% 2 21.10.2028 -
Chris Rigg West Ham United Actif 143 / 150 40% 1 21.10.2028 -
Mateo Caballero Defensor Sporting Actif 111 / 111 40% 1 20.10.2028 -
Germán Barbas Racing Santander Actif 117 / 124 40% 1 18.10.2028 -
Eric Klein Real Salt Lake Actif 111 / 103 40% 1 18.10.2028 -
Pau Cubarsí Real Sociedad Actif 167 / 160 40% 1 17.10.2028 -
Muminhon Bahodirxonov Neftchi Actif 94 / 101 40% 1 14.10.2028 -
Celías Ingenthron Platense Actif 107 / 137 40% 1 13.10.2028 -
Máximo Magnoli Ferro Carril Oeste Actif 107 / 103 40% 1 10.10.2028 -
Veljko Milosavljević Bournemouth Actif 147 / 156 40% 1 10.10.2028 -
Harry Amass Manchester United Actif 140 / 145 40% 3 09.10.2028 -
Nikola Simić Partizan Actif 128 / 125 40% 2 09.10.2028 -
Sebastian Rodriguez Houston Dynamo Actif 120 / 123 40% 2 07.10.2028 -
Joel Ezra Enyimba Actif 106 / 93 40% 4 07.09.2028 -
Mauro Carrizo Atlético Tucumán Actif 118 / 111 40% 1 07.09.2028 -
Matías Magdaleno Estudiantes Actif 113 / 106 40% 1 28.08.2028 -
Tobías Ramírez River Plate Perdu 134 / 138 40% 1 28.08.2028 -
Nikola Simić Partizan Perdu 122 / 125 40% 1 21.08.2028 -
Basel Medhat Smouha Actif 85 / 106 40% 1 15.08.2028 -
Felipe Obradovich Ferro Carril Oeste Perdu 123 / 101 40% 1 15.08.2028 -
Augusto Bando Ascoli Actif 113 / 125 40% 1 14.08.2028 -
Agustín Medina Lanús Actif 106 / 113 40% 1 14.08.2028 -
Ayden Heaven Portsmouth Actif 145 / 159 40% 7 10.08.2028 -
Bernardo Lima Porto Actif 111 / 125 40% 1 09.08.2028 -
Tyler Fletcher Rotherham United Actif 124 / 129 40% 1 08.08.2028 -
Andrés Cuenca Como Actif 124 / 121 40% 1 07.08.2028 -
David Mella Deportivo La Coruña Actif 150 / 138 40% 1 06.08.2028 -
Oladapo Afolayan Blackburn Rovers Actif 127 / 128 40% 1 06.08.2028 -
Máximo Munarriz San Telmo Actif 86 / 96 40% 1 06.08.2028 -
Lamine Bèye Portimonense Actif 124 / 130 40% 1 06.08.2028 -
Mirza Ćatović VfB Stuttgart Actif 123 / 124 40% 1 05.08.2028 -
Omar El Hilali Espanyol Actif 157 / 160 40% 4 04.08.2028 -
Matteo Ruggeri Middlesbrough Actif 160 / 157 40% 2 04.08.2028 -
Max Bird Birmingham Actif 136 / 148 40% 2 02.08.2028 -
Jeremy Sarmiento Middlesbrough Actif 146 / 135 40% 1 02.08.2028 -
Marcus Tavernier Bournemouth Actif 157 / 159 40% 3 01.08.2028 -
Tyrese Campbell Sheffield United Actif 142 / 137 40% 2 01.08.2028 -
Bence Szakos Aris Actif 103 / 107 40% 1 01.08.2028 -
Uğurcan Yazğılı Konyaspor Perdu 119 / 130 62% 1 31.07.2028 -
Carlos Baleba Norwich City Actif 154 / 157 40% 1 31.07.2028 -
Reuell Walters Luton Town Actif 130 / 126 40% 1 31.07.2028 -
Jon Morcillo Almería Actif 148 / 142 40% 1 29.07.2028 -
Matěj Jurásek Doncaster Rovers Actif 125 / 124 40% 1 29.07.2028 -
Jayden Addai Bari Actif 137 / 137 40% 3 28.07.2028 -
Amankwah Forson Wycombe Wanderers Actif 135 / 132 40% 1 28.07.2028 -
Marcelo Allende Mamelodi Sundowns Actif 159 / 129 40% 2 25.07.2028 -
Nathan Broadhead Wrexham Actif 140 / 125 40% 2 25.07.2028 -
Lewis O'Brien Wrexham Actif 143 / 139 40% 2 24.07.2028 -
Nuno Santos SuperSport United Actif 129 / 124 40% 1 24.07.2028 -
Ignasi Vilarrasa Burgos Actif 124 / 127 40% 1 23.07.2028 -
Zeidane Inoussa Swansea City Actif 132 / 134 40% 1 23.07.2028 -
Cengiz Ünder Fenerbahce Actif 135 / 142 40% 1 21.07.2028 -
Ryoya Morishita Blackburn Rovers Actif 137 / 139 40% 1 21.07.2028 -
Nestory Irankunda Watford Actif 128 / 136 40% 1 20.07.2028 -
Calvin Ramsay Bristol Rovers Actif 133 / 130 40% 1 20.07.2028 -
Justo Giani Umraniyespor Actif 131 / 120 40% 1 19.07.2028 -
Harry Wilson Leeds United Actif 149 / 147 40% 1 18.07.2028 -
Angeliño AS Roma Actif 155 / 157 40% 1 18.07.2028 -
Samuel Ballet Antalyaspor Actif 130 / 118 62% 1 17.07.2028 Approuver
Juan Cruz Leganés Actif 136 / 130 40% 1 17.07.2028 -
Dorgéles Néné Ankaragucu Actif 144 / 132 62% 1 03.07.2028 Approuver
André Wolverhampton Actif 161 / 157 40% 2 12.06.2028 -
Fousseni Diabaté Kasimpasa Actif 113 / 122 62% 1 12.06.2028 Approuver
Dwight McNeil Crystal Palace Actif 148 / 144 40% 1 12.06.2028 -
Milot Rashica Besiktas Actif 131 / 132 62% 1 07.06.2028 Approuver
Iván Martín Racing Santander Actif 143 / 145 40% 1 29.05.2028 -
Lamare Bogarde Reading Actif 132 / 140 40% 1 29.05.2028 -
Ben Gannon Doak Charlton Athletic Actif 156 / 159 40% 7 27.05.2028 -
Yasin Ayari Middlesbrough Actif 145 / 150 40% 1 27.05.2028 -
Yaser Asprilla Girona Actif 155 / 154 40% 4 24.05.2028 -
Manuel Ugarte Leicester City Actif 152 / 147 40% 1 23.05.2028 -
Pablo Torre Mallorca Actif 149 / 157 40% 4 22.05.2028 -
Thijs Kraaijeveld USM Alger Actif 125 / 122 40% 3 22.05.2028 -
Jorge Salinas Racing Santander Actif 124 / 135 40% 1 22.05.2028 -
Fran García Betis Perdu 161 / 160 40% 2 21.05.2028 -
Salih Özcan Besiktas Actif 146 / 128 40% 3 20.05.2028 -
Borja Sainz Udinese Perdu 159 / 159 40% 1 20.05.2028 -
Couhaib Driouech Celta Actif 147 / 140 40% 1 20.05.2028 -
Xaver Schlager Nottingham Forest Perdu 162 / 159 40% 3 18.05.2028 -
Pau Víctor Braga Actif 154 / 152 40% 5 16.05.2028 -
Luka Sučić Andorra Actif 144 / 150 40% 2 16.05.2028 -
Eddie Nketiah Crystal Palace Actif 145 / 145 40% 1 15.05.2028 -
Ismaïla Sarr Crystal Palace Actif 150 / 145 40% 4 14.05.2028 -
Daniel Banjaqui Benfica Actif 120 / 123 40% 2 14.05.2028 -
Amine Adli Bournemouth Perdu 158 / 140 40% 1 14.05.2028 -
Makar Vysochenko Spartak Moscow Actif 97 / 99 40% 1 14.05.2028 -
Mohamed-Ali Cho Hull City Actif 139 / 142 40% 4 13.05.2028 -
Cheveyo Tsawa Club Brugge Actif 125 / 129 40% 1 13.05.2028 -
Geny Sporting CP Actif 156 / 147 40% 4 12.05.2028 -
Gaspar Gijón Actif 138 / 143 40% 1 12.05.2028 -
Archie Gray Southampton Actif 158 / 151 40% 5 11.05.2028 -
Noa Lang Napoli Actif 148 / 143 40% 2 11.05.2028 -
Andrés Martín Racing Santander Actif 149 / 140 40% 1 10.05.2028 -
Giacomo Raspadori Atalanta Actif 148 / 159 40% 1 09.05.2028 -
Jorthy Mokio ADO Den Haag Actif 133 / 128 40% 3 08.05.2028 -
Sander Berge Derby County Actif 150 / 148 40% 1 08.05.2028 -
Jofre Carreras Espanyol Actif 147 / 139 40% 1 06.05.2028 -
Aimar Osasuna Perdu 158 / 143 40% 1 05.05.2028 -
Héctor Fort Real Sociedad Actif 149 / 146 40% 2 03.05.2028 -
Jonathan Dubasin Osasuna Actif 153 / 143 40% 3 02.05.2028 -
Abel Ruiz Girona Actif 146 / 148 40% 2 30.04.2028 -
Kamaldeen Atiemo Wa All Stars Actif 93 / 119 40% 2 30.04.2028 -
Carlos Alcaraz Stoke City Actif 153 / 148 40% 1 29.04.2028 -
Mattéo Guendouzi Fenerbahce Actif 156 / 146 40% 4 27.04.2028 -
Adam Wharton Crystal Palace Actif 153 / 164 40% 1 27.04.2028 -
Óscar Mingueza Crystal Palace Actif 162 / 147 40% 1 27.04.2028 -
Lucas Høgsberg RC Strasbourg Actif 135 / 147 40% 2 24.04.2028 -
Jaidon Anthony Derby County Actif 135 / 130 40% 3 22.04.2028 -
Pote Sporting CP Actif 161 / 163 40% 4 22.04.2028 -
Kang-In Lee Villarreal Actif 172 / 151 40% 1 18.04.2028 -
Semih Kılıçsoy Besiktas Actif 126 / 129 40% 1 16.04.2028 -
David Larrubia Málaga Actif 134 / 137 40% 1 16.04.2028 -
Marcus Edwards Burnley Actif 153 / 148 40% 3 15.04.2028 -
Yann Gboho Toulouse FC Actif 147 / 138 40% 1 14.04.2028 -
Thiago Almada LOSC Lille Actif 148 / 143 40% 2 09.04.2028 -
Erick Pulga Bahia Actif 133 / 146 40% 1 09.04.2028 -
Hugo Duro Valencia Actif 154 / 153 40% 1 05.04.2028 -
Roberto Fernández Braga Actif 151 / 144 40% 1 04.04.2028 -
Chemsdine Talbi Sunderland Actif 146 / 152 40% 2 01.04.2028 -
Ez Abde Betis Actif 166 / 147 40% 1 30.03.2028 -
Nordi Mukiele Sunderland Actif 154 / 139 40% 5 28.03.2028 -
Benjamín Rollheiser Santos Actif 133 / 124 40% 2 28.03.2028 -
Arnau Martínez Valencia Actif 153 / 142 40% 1 28.03.2028 -
Samuel Edozie Southampton Actif 134 / 133 40% 1 26.03.2028 -
Shavy Babicka Crvena Zvezda Actif 119 / 114 40% 1 21.03.2028 -
Musa Barrow ES Setif Actif 129 / 137 40% 2 20.03.2028 -
Vitaly Janelt Derby County Actif 154 / 144 40% 1 18.03.2028 -
Christian Kouamé Atlético Mineiro Actif 142 / 140 40% 2 17.03.2028 -
Hákon Arnar Haraldsson LOSC Lille Actif 157 / 151 40% 1 17.03.2028 -
Malick Fofana Sunderland Actif 149 / 145 40% 1 17.03.2028 -
Jackson Muleka Konyaspor Actif 141 / 128 40% 2 14.03.2028 -
Jaden Philogene Wolverhampton Actif 142 / 147 40% 1 11.03.2028 -
Fábio Carvalho Brentford Actif 150 / 151 40% 1 10.03.2028 -
Yeremy Pino Crystal Palace Actif 153 / 158 40% 1 08.03.2028 -
Mikel Oyarzábal Real Sociedad Actif 166 / 165 40% 1 08.03.2028 -
Mikkel Damsgaard Brentford Actif 145 / 160 40% 1 07.03.2028 -
Aral Şimşir Porto Actif 131 / 137 40% 2 04.03.2028 -
Tyrhys Dolan Espanyol Actif 137 / 147 40% 1 04.03.2028 -
Cheikh Sabaly Vancouver Whitecaps Actif 123 / 141 40% 1 01.03.2028 -
Amine Harit Olympique de Marseille Actif 134 / 126 40% 2 29.02.2028 -
Nuno Moreira Vasco da Gama Actif 119 / 138 40% 3 26.02.2028 -
Victor Lind Hammarby Actif 144 / 127 40% 2 24.02.2028 -
Maurício Palmeiras Actif 148 / 120 40% 3 23.02.2028 -
Jhon Arias Palmeiras Actif 159 / 129 40% 2 23.02.2028 -
Pedro de la Vega Columbus Crew Actif 134 / 150 40% 1 21.02.2028 -
Iván Angulo Orlando City Actif 139 / 126 40% 1 21.02.2028 -
Martín Ojeda Orlando City Actif 127 / 129 40% 1 12.02.2028 -
Désiré Doué Stade Brestois Actif 167 / 170 40% 2 08.02.2028 -
Gabriel Pec Cruzeiro Actif 149 / 126 40% 1 08.02.2028 -
Allan Saint-Maximin Charlotte Football Club Actif 152 / 129 40% 1 07.02.2028 -
Josh Nichols Oldham Athletic Actif 120 / 124 40% 3 24.01.2028 -
Ali Yavuz Kol Kasimpasa Actif 125 / 117 58% 1 17.01.2028 -
Mao Hosoya Santos Actif 134 / 135 67% 1 01.01.2028 Approuver
Alex Luna Instituto Actif 125 / 128 40% 1 31.12.2027 -
Fodé Sylla Sion Actif 129 / 135 40% 1 28.11.2027 -
Nicolas Sport Recife Actif 105 / 105 40% 1 28.11.2027 -
Hosea Michael Remo Stars Actif 82 / 87 40% 2 24.11.2027 -
Felipe Faúndez O'Higgins Actif 116 / 101 40% 2 24.11.2027 -
Esquerdinha Notts County Actif 122 / 128 40% 4 23.11.2027 -
Diego Vargas Universidad de Concepcion Actif 84 / 112 40% 3 22.11.2027 -
Josh Acheampong Everton Actif 143 / 149 40% 3 22.11.2027 -
Jonny Shore New York City Actif 115 / 91 40% 2 20.11.2027 -
Caleb Yirenkyi Coventry City Actif 142 / 156 40% 1 17.11.2027 -
Adrian Skogmar Malmo FF Actif 99 / 128 40% 1 10.11.2027 -
Jon Esenga IF Elfsborg Actif 87 / 112 40% 1 08.11.2027 -
Nahuel Leivas Montevideo City Torque Actif 111 / 102 40% 2 02.11.2027 -
Olaniyi Saheed Kwara United Actif 89 / 106 40% 2 01.11.2027 -
Daniel Idoko Ikorodu City Actif 92 / 102 40% 3 29.10.2027 -
Oscar Steinke Brånby Hammarby Actif 93 / 114 40% 1 19.10.2027 -
Tobias Moi Lillestrom Actif 92 / 109 40% 1 17.10.2027 -
Colin Guske Orlando City Actif 104 / 91 40% 2 16.10.2027 -
Yury Oyarzo Racing Actif 75 / 104 40% 1 09.10.2027 -
Victor Hernandez Santa Fe Actif 107 / 123 40% 1 06.10.2027 -
Alejandro Leiva Patronato Actif 98 / 95 40% 1 26.08.2027 -
Federico Matarán Giana Erminio Actif 105 / 103 40% 1 16.08.2027 -
Matthew Targett Hull City Actif 126 / 129 40% 1 06.07.2027 -
Alphadjo Cissé Lecce Actif 129 / 133 40% 1 03.06.2027 -
Riley Owen Stevenage Actif 100 / 115 40% 1 03.06.2027 -
Oliver Dovin Coventry City Actif 136 / 140 40% 7 01.06.2027 -
Sławomir Abramowicz Jagiellonia Actif 129 / 145 40% 4 01.06.2027 -
Ángel González Libertad Actif 120 / 123 40% 2 26.05.2027 -
James Trafford Leeds United Actif 153 / 153 40% 3 23.05.2027 -
Josh Keeley Luton Town Actif 120 / 125 40% 4 23.05.2027 -
Filip Marschall Stevenage Actif 110 / 107 40% 1 17.05.2027 -
Francesco D'Alterio Ternana Actif 100 / 116 40% 2 14.05.2027 -
William Rovida Pro Patria Actif 110 / 98 40% 1 14.05.2027 -
Marvin Keller Chelsea Actif 148 / 144 40% 3 10.05.2027 -
Franko Kolić Istra 1961 Actif 99 / 96 40% 4 06.05.2027 -
Cesare Galeotti Trapani Actif 107 / 106 40% 1 05.05.2027 -
Emre Bilgin Giresunspor Actif 113 / 111 40% 2 01.05.2027 -
Vladimir Nazarov Pakhtakor Actif 96 / 98 40% 1 30.04.2027 -
Zion Suzuki Aston Villa Actif 141 / 146 40% 2 26.04.2027 -
Radek Vítek Middlesbrough Actif 138 / 133 40% 4 23.04.2027 -
Szymon Weirauch Lechia Actif 113 / 124 40% 1 19.04.2027 -
Luka Baš Koper Actif 119 / 116 40% 3 18.04.2027 -
Sergio Barlocco Trento Actif 113 / 105 40% 3 17.04.2027 -
Leandro Brey Boca Juniors Actif 116 / 140 40% 2 12.04.2027 -
Bruno Antúnez Boston River Actif 129 / 106 40% 1 11.04.2027 -
Melker Ellborg Sunderland Actif 121 / 119 40% 4 08.04.2027 -
Matteo Rizzo Cosenza Actif 115 / 103 40% 1 31.03.2027 -
Mate Modric Zadar Actif 94 / 97 40% 2 29.03.2027 -
Shahriar Rezaeian Siah Jamegan Actif 94 / 119 40% 1 25.03.2027 -
Federico Losas Chacarita Juniors Actif 102 / 135 40% 1 15.03.2027 -
Heorhii Yermakov Metalist Actif 130 / 114 40% 1 08.03.2027 -
Deniz Ertaş Konyaspor Actif 132 / 113 40% 1 06.03.2027 -
Strahinja Manojlović Radnicki Nis Actif 99 / 125 40% 1 03.03.2027 -
Mohammad Hosseini Malavan Actif 127 / 120 40% 1 29.01.2027 -
Mevran Ablak Angusht Actif 67 / 74 40% 1 27.01.2027 -
Sampson Dweh Mallorca Actif 133 / 134 66% 1 01.01.2027 Approuver
Enis Bardhi Konyaspor Actif 132 / 112 58% 1 01.01.2027 -
Mads Hermansen West Ham United Actif 137 / 149 40% 1 01.01.2027 -
Nathan Collins Brentford Actif 137 / 158 40% 1 29.12.2026 -
Quinten Timber Crystal Palace Actif 147 / 159 40% 2 27.12.2026 -
Dennis Cirkin Queens Park Rangers Actif 135 / 132 40% 1 27.12.2026 -
Dara O'Shea Ipswich Town Actif 138 / 124 40% 2 25.12.2026 -
Jacob Greaves Ipswich Town Actif 143 / 128 40% 1 23.12.2026 -
Tomáš Souček West Ham United Actif 136 / 131 40% 1 22.12.2026 -
Reinildo Sunderland Actif 138 / 141 40% 3 21.12.2026 -
James Garner Everton Actif 156 / 137 40% 1 21.12.2026 -
Lucas Torreira Galatasaray Actif 156 / 146 40% 2 20.12.2026 -
Igor Burnley Actif 134 / 135 40% 1 20.12.2026 -
Alex Scott Bournemouth Actif 146 / 156 40% 1 18.12.2026 -
Gabriel Sara Galatasaray Actif 144 / 152 40% 3 17.12.2026 -
Wilfried Singo Galatasaray Actif 146 / 144 40% 2 17.12.2026 -
Milan Škriniar Fenerbahce Actif 152 / 163 40% 3 16.12.2026 -
Aaron Hickey Brentford Actif 135 / 137 40% 1 14.12.2026 -
Brooke Norton-Cuffy Hull City Actif 137 / 139 40% 1 14.12.2026 -
Emmanuel Agbadou Besiktas Actif 142 / 146 40% 1 12.12.2026 -
Harry Clarke Preston Actif 121 / 136 40% 1 10.12.2026 -
Welington Southampton Actif 138 / 124 40% 1 09.12.2026 -
Yehor Yarmoliuk Brentford Actif 150 / 140 40% 1 03.12.2026 -
Max Johnston Derby County Actif 132 / 133 40% 2 02.12.2026 -
Florentino Luís Ipswich Town Actif 150 / 147 40% 2 30.11.2026 -
Toby Collyer West Bromwich Albion Actif 134 / 142 40% 1 30.11.2026 -
Jordan Lotomba Bloemfontein Celtic Actif 140 / 137 40% 1 29.11.2026 -
Pedro Porro Tottenham Actif 154 / 141 40% 2 20.11.2026 -
Shea Charles Southampton Actif 131 / 124 40% 1 20.11.2026 -
Leon Goretzka Aston Villa Actif 160 / 144 40% 1 14.11.2026 -
Ousmane Diomande Nottingham Forest Actif 159 / 147 40% 1 10.11.2026 -
Paik Seung-Ho Birmingham Actif 122 / 128 40% 1 09.11.2026 -
Tariq Lamptey Queens Park Rangers Actif 134 / 138 40% 1 09.11.2026 -
Hidemasa Morita Hull City Actif 141 / 153 40% 1 08.11.2026 -
Jarrad Branthwaite Everton Actif 161 / 158 40% 1 07.11.2026 -
Joe Gomez Liverpool Actif 155 / 138 40% 1 07.11.2026 -
Maestro Alanyaspor Actif 125 / 132 40% 1 02.11.2026 -
Nicolás Romero Minnesota United FC Actif 115 / 142 40% 1 24.10.2026 -
Agustín Bouzat Houston Dynamo Actif 128 / 112 40% 2 23.10.2026 -
Davinson Sánchez Galatasaray Actif 159 / 140 40% 2 23.10.2026 -
Nathan Aké Fenerbahce Actif 153 / 142 40% 4 22.10.2026 -
Facundo Miño Deportivo Riestra Actif 105 / 104 40% 1 21.10.2026 -
Gustavo Mantuan Zenit Actif 116 / 140 40% 1 21.10.2026 -
Morgan Billiat SuperSport United Actif 109 / 126 40% 1 16.10.2026 -
Marcel Hartel St. Louis CITY SC Actif 115 / 138 40% 1 14.10.2026 -
Ferland Mendy Real Madrid Actif 155 / 151 40% 1 13.10.2026 -
Óscar Valentín FC Copenhagen Actif 130 / 126 40% 1 09.10.2026 -
Japhet Sery Larsen Philadelphia Union Actif 140 / 141 40% 1 08.10.2026 -
Marcelo Saracchi Houston Dynamo Actif 123 / 123 40% 1 09.09.2026 -
Bünyamin Balcı Antalyaspor Actif 123 / 109 55% 1 31.08.2026 -